sensor_id;sensor_type;location;lat;lon;timestamp;P1;durP1;ratioP1;P2;durP2;ratioP2
21107;SDS011;10712;52.944;9.098;2023-02-16T00:00:29;27.85;;;18.27;;
21107;SDS011;10712;52.944;9.098;2023-02-16T00:02:55;27.63;;;18.38;;
21107;SDS011;10712;52.944;9.098;2023-02-16T00:05:23;26.52;;;15.98;;
21107;SDS011;10712;52.944;9.098;2023-02-16T00:07:59;27.75;;;17.95;;
21107;SDS011;10712;52.944;9.098;2023-02-16T00:10:29;25.98;;;16.67;;
21107;SDS011;10712;52.944;9.098;2023-02-16T00:12:58;28.23;;;18.48;;
21107;SDS011;10712;52.944;9.098;2023-02-16T00:15:43;22.98;;;16.13;;
21107;SDS011;10712;52.944;9.098;2023-02-16T00:18:17;26.50;;;16.90;;
21107;SDS011;10712;52.944;9.098;2023-02-16T00:20:47;23.50;;;15.48;;
21107;SDS011;10712;52.944;9.098;2023-02-16T00:23:13;24.25;;;16.13;;
21107;SDS011;10712;52.944;9.098;2023-02-16T00:25:39;31.52;;;17.63;;
21107;SDS011;10712;52.944;9.098;2023-02-16T00:28:15;24.02;;;15.82;;
21107;SDS011;10712;52.944;9.098;2023-02-16T00:30:45;24.23;;;16.95;;
21107;SDS011;10712;52.944;9.098;2023-02-16T00:33:19;25.63;;;16.77;;
21107;SDS011;10712;52.944;9.098;2023-02-16T00:35:45;25.45;;;17.05;;
21107;SDS011;10712;52.944;9.098;2023-02-16T00:38:15;26.40;;;17.23;;
21107;SDS011;10712;52.944;9.098;2023-02-16T00:40:41;24.65;;;16.20;;
21107;SDS011;10712;52.944;9.098;2023-02-16T00:43:12;24.38;;;17.48;;
21107;SDS011;10712;52.944;9.098;2023-02-16T00:45:52;28.00;;;17.10;;
21107;SDS011;10712;52.944;9.098;2023-02-16T00:48:20;24.20;;;16.13;;
21107;SDS011;10712;52.944;9.098;2023-02-16T00:50:51;24.67;;;16.25;;
21107;SDS011;10712;52.944;9.098;2023-02-16T00:53:17;22.02;;;16.20;;
21107;SDS011;10712;52.944;9.098;2023-02-16T00:55:43;23.08;;;15.55;;
21107;SDS011;10712;52.944;9.098;2023-02-16T01:00:50;23.17;;;15.55;;
21107;SDS011;10712;52.944;9.098;2023-02-16T01:03:21;25.48;;;16.58;;
21107;SDS011;10712;52.944;9.098;2023-02-16T01:08:37;22.92;;;15.35;;
21107;SDS011;10712;52.944;9.098;2023-02-16T01:11:22;24.95;;;15.68;;
21107;SDS011;10712;52.944;9.098;2023-02-16T01:13:49;23.48;;;16.60;;
21107;SDS011;10712;52.944;9.098;2023-02-16T01:16:19;25.35;;;17.35;;
21107;SDS011;10712;52.944;9.098;2023-02-16T01:18:49;24.38;;;16.27;;
21107;SDS011;10712;52.944;9.098;2023-02-16T01:21:17;21.63;;;14.80;;
21107;SDS011;10712;52.944;9.098;2023-02-16T01:23:45;25.35;;;16.50;;
21107;SDS011;10712;52.944;9.098;2023-02-16T01:26:15;26.60;;;17.42;;
21107;SDS011;10712;52.944;9.098;2023-02-16T01:28:45;27.20;;;17.02;;
21107;SDS011;10712;52.944;9.098;2023-02-16T01:31:14;21.75;;;16.20;;
21107;SDS011;10712;52.944;9.098;2023-02-16T01:33:41;32.28;;;19.25;;
21107;SDS011;10712;52.944;9.098;2023-02-16T01:39:14;26.05;;;18.52;;
21107;SDS011;10712;52.944;9.098;2023-02-16T01:45:17;25.75;;;18.17;;
21107;SDS011;10712;52.944;9.098;2023-02-16T01:47:53;32.85;;;20.25;;
21107;SDS011;10712;52.944;9.098;2023-02-16T01:50:35;27.88;;;18.40;;
21107;SDS011;10712;52.944;9.098;2023-02-16T01:53:14;31.20;;;18.83;;
21107;SDS011;10712;52.944;9.098;2023-02-16T01:55:57;29.30;;;19.42;;
21107;SDS011;10712;52.944;9.098;2023-02-16T01:58:39;26.65;;;18.30;;
21107;SDS011;10712;52.944;9.098;2023-02-16T02:03:49;30.88;;;18.40;;
21107;SDS011;10712;52.944;9.098;2023-02-16T02:06:34;28.93;;;17.93;;
21107;SDS011;10712;52.944;9.098;2023-02-16T02:09:07;25.23;;;17.02;;
21107;SDS011;10712;52.944;9.098;2023-02-16T02:12:13;26.92;;;18.17;;
21107;SDS011;10712;52.944;9.098;2023-02-16T02:14:59;24.75;;;15.93;;
21107;SDS011;10712;52.944;9.098;2023-02-16T02:17:26;23.58;;;16.50;;
21107;SDS011;10712;52.944;9.098;2023-02-16T02:19:56;29.08;;;16.77;;
21107;SDS011;10712;52.944;9.098;2023-02-16T02:22:40;24.15;;;15.90;;
21107;SDS011;10712;52.944;9.098;2023-02-16T02:25:46;23.38;;;16.27;;
21107;SDS011;10712;52.944;9.098;2023-02-16T02:31:47;23.70;;;16.50;;
21107;SDS011;10712;52.944;9.098;2023-02-16T02:37:36;22.35;;;14.75;;
21107;SDS011;10712;52.944;9.098;2023-02-16T02:40:34;26.90;;;17.02;;
21107;SDS011;10712;52.944;9.098;2023-02-16T02:46:20;23.65;;;15.45;;
21107;SDS011;10712;52.944;9.098;2023-02-16T02:48:53;24.75;;;15.70;;
21107;SDS011;10712;52.944;9.098;2023-02-16T02:51:20;24.23;;;15.90;;
21107;SDS011;10712;52.944;9.098;2023-02-16T02:57:32;21.60;;;15.27;;
21107;SDS011;10712;52.944;9.098;2023-02-16T03:00:36;21.42;;;15.43;;
21107;SDS011;10712;52.944;9.098;2023-02-16T03:03:19;24.90;;;16.40;;
21107;SDS011;10712;52.944;9.098;2023-02-16T03:05:57;23.90;;;16.20;;
21107;SDS011;10712;52.944;9.098;2023-02-16T03:08:30;32.95;;;18.23;;
21107;SDS011;10712;52.944;9.098;2023-02-16T03:11:10;27.52;;;17.50;;
21107;SDS011;10712;52.944;9.098;2023-02-16T03:14:09;28.90;;;17.20;;
21107;SDS011;10712;52.944;9.098;2023-02-16T03:17:01;24.58;;;16.13;;
21107;SDS011;10712;52.944;9.098;2023-02-16T03:19:52;26.13;;;16.20;;
21107;SDS011;10712;52.944;9.098;2023-02-16T03:22:40;31.17;;;18.48;;
21107;SDS011;10712;52.944;9.098;2023-02-16T03:25:26;29.25;;;18.23;;
21107;SDS011;10712;52.944;9.098;2023-02-16T03:28:16;28.73;;;17.45;;
21107;SDS011;10712;52.944;9.098;2023-02-16T03:31:07;27.95;;;17.85;;
21107;SDS011;10712;52.944;9.098;2023-02-16T03:33:38;28.33;;;17.83;;
21107;SDS011;10712;52.944;9.098;2023-02-16T03:36:05;32.22;;;19.42;;
21107;SDS011;10712;52.944;9.098;2023-02-16T03:38:32;28.00;;;17.48;;
21107;SDS011;10712;52.944;9.098;2023-02-16T03:40:58;26.27;;;17.45;;
21107;SDS011;10712;52.944;9.098;2023-02-16T03:43:25;30.05;;;19.67;;
21107;SDS011;10712;52.944;9.098;2023-02-16T03:45:53;27.95;;;19.15;;
21107;SDS011;10712;52.944;9.098;2023-02-16T03:48:19;32.00;;;19.05;;
21107;SDS011;10712;52.944;9.098;2023-02-16T03:50:45;29.00;;;18.55;;
21107;SDS011;10712;52.944;9.098;2023-02-16T03:53:11;26.23;;;18.42;;
21107;SDS011;10712;52.944;9.098;2023-02-16T03:55:38;29.05;;;18.27;;
21107;SDS011;10712;52.944;9.098;2023-02-16T03:58:09;32.35;;;20.48;;
21107;SDS011;10712;52.944;9.098;2023-02-16T04:00:41;32.70;;;19.85;;
21107;SDS011;10712;52.944;9.098;2023-02-16T04:03:08;29.13;;;18.85;;
21107;SDS011;10712;52.944;9.098;2023-02-16T04:05:33;42.10;;;23.75;;
21107;SDS011;10712;52.944;9.098;2023-02-16T04:07:59;36.13;;;23.92;;
21107;SDS011;10712;52.944;9.098;2023-02-16T04:10:25;35.05;;;23.13;;
21107;SDS011;10712;52.944;9.098;2023-02-16T04:12:52;47.17;;;25.75;;
21107;SDS011;10712;52.944;9.098;2023-02-16T04:15:22;38.95;;;24.45;;
21107;SDS011;10712;52.944;9.098;2023-02-16T04:17:51;37.97;;;23.95;;
21107;SDS011;10712;52.944;9.098;2023-02-16T04:20:19;37.72;;;23.30;;
21107;SDS011;10712;52.944;9.098;2023-02-16T04:22:49;34.90;;;22.37;;
21107;SDS011;10712;52.944;9.098;2023-02-16T04:25:15;42.97;;;24.95;;
21107;SDS011;10712;52.944;9.098;2023-02-16T04:27:43;42.95;;;25.38;;
21107;SDS011;10712;52.944;9.098;2023-02-16T04:30:10;40.85;;;24.67;;
21107;SDS011;10712;52.944;9.098;2023-02-16T04:32:40;42.33;;;26.45;;
21107;SDS011;10712;52.944;9.098;2023-02-16T04:35:06;42.50;;;28.27;;
21107;SDS011;10712;52.944;9.098;2023-02-16T04:37:32;43.38;;;25.95;;
21107;SDS011;10712;52.944;9.098;2023-02-16T04:39:58;40.25;;;24.58;;
21107;SDS011;10712;52.944;9.098;2023-02-16T04:42:24;37.17;;;24.08;;
21107;SDS011;10712;52.944;9.098;2023-02-16T04:44:50;39.28;;;24.80;;
21107;SDS011;10712;52.944;9.098;2023-02-16T04:47:17;39.35;;;24.73;;
21107;SDS011;10712;52.944;9.098;2023-02-16T04:49:43;37.67;;;24.20;;
21107;SDS011;10712;52.944;9.098;2023-02-16T04:52:10;44.33;;;25.42;;
21107;SDS011;10712;52.944;9.098;2023-02-16T04:54:37;39.53;;;24.17;;
21107;SDS011;10712;52.944;9.098;2023-02-16T04:57:03;41.28;;;26.15;;
21107;SDS011;10712;52.944;9.098;2023-02-16T04:59:29;39.20;;;25.73;;
21107;SDS011;10712;52.944;9.098;2023-02-16T05:01:55;37.50;;;25.80;;
21107;SDS011;10712;52.944;9.098;2023-02-16T05:04:22;39.97;;;24.90;;
21107;SDS011;10712;52.944;9.098;2023-02-16T05:06:48;46.05;;;27.77;;
21107;SDS011;10712;52.944;9.098;2023-02-16T05:09:15;45.95;;;27.23;;
21107;SDS011;10712;52.944;9.098;2023-02-16T05:11:41;40.38;;;25.35;;
21107;SDS011;10712;52.944;9.098;2023-02-16T05:14:34;45.17;;;25.70;;
21107;SDS011;10712;52.944;9.098;2023-02-16T05:17:06;41.63;;;26.17;;
21107;SDS011;10712;52.944;9.098;2023-02-16T05:19:52;44.00;;;27.42;;
21107;SDS011;10712;52.944;9.098;2023-02-16T05:22:21;47.72;;;29.63;;
21107;SDS011;10712;52.944;9.098;2023-02-16T05:24:47;42.03;;;28.25;;
21107;SDS011;10712;52.944;9.098;2023-02-16T05:27:15;42.88;;;27.40;;
21107;SDS011;10712;52.944;9.098;2023-02-16T05:29:45;47.05;;;29.65;;
21107;SDS011;10712;52.944;9.098;2023-02-16T05:32:11;49.22;;;28.48;;
21107;SDS011;10712;52.944;9.098;2023-02-16T05:34:37;45.05;;;27.95;;
21107;SDS011;10712;52.944;9.098;2023-02-16T05:37:03;41.88;;;27.60;;
21107;SDS011;10712;52.944;9.098;2023-02-16T05:39:30;48.85;;;28.00;;
21107;SDS011;10712;52.944;9.098;2023-02-16T05:41:55;46.50;;;29.92;;
21107;SDS011;10712;52.944;9.098;2023-02-16T05:44:22;47.63;;;28.08;;
21107;SDS011;10712;52.944;9.098;2023-02-16T05:46:47;43.55;;;27.20;;
21107;SDS011;10712;52.944;9.098;2023-02-16T05:49:14;39.55;;;24.27;;
21107;SDS011;10712;52.944;9.098;2023-02-16T05:51:41;45.20;;;27.65;;
21107;SDS011;10712;52.944;9.098;2023-02-16T05:54:07;41.55;;;28.25;;
21107;SDS011;10712;52.944;9.098;2023-02-16T05:56:35;45.33;;;27.23;;
21107;SDS011;10712;52.944;9.098;2023-02-16T05:59:01;48.20;;;27.67;;
21107;SDS011;10712;52.944;9.098;2023-02-16T06:01:27;42.53;;;26.45;;
21107;SDS011;10712;52.944;9.098;2023-02-16T06:03:53;38.20;;;26.40;;
21107;SDS011;10712;52.944;9.098;2023-02-16T06:06:19;40.05;;;26.48;;
21107;SDS011;10712;52.944;9.098;2023-02-16T06:08:45;41.53;;;27.35;;
21107;SDS011;10712;52.944;9.098;2023-02-16T06:11:11;48.20;;;30.20;;
21107;SDS011;10712;52.944;9.098;2023-02-16T06:13:56;48.75;;;31.42;;
21107;SDS011;10712;52.944;9.098;2023-02-16T06:16:26;47.00;;;30.85;;
21107;SDS011;10712;52.944;9.098;2023-02-16T06:18:55;47.85;;;30.23;;
21107;SDS011;10712;52.944;9.098;2023-02-16T06:21:22;45.90;;;30.88;;
21107;SDS011;10712;52.944;9.098;2023-02-16T06:23:49;54.70;;;32.63;;
21107;SDS011;10712;52.944;9.098;2023-02-16T06:26:15;44.35;;;29.92;;
21107;SDS011;10712;52.944;9.098;2023-02-16T06:28:41;53.50;;;32.65;;
21107;SDS011;10712;52.944;9.098;2023-02-16T06:31:07;52.50;;;32.03;;
21107;SDS011;10712;52.944;9.098;2023-02-16T06:33:34;50.42;;;32.28;;
21107;SDS011;10712;52.944;9.098;2023-02-16T06:36:00;52.50;;;33.53;;
21107;SDS011;10712;52.944;9.098;2023-02-16T06:38:26;49.28;;;31.15;;
21107;SDS011;10712;52.944;9.098;2023-02-16T06:40:52;47.75;;;31.63;;
21107;SDS011;10712;52.944;9.098;2023-02-16T06:43:18;46.78;;;30.90;;
21107;SDS011;10712;52.944;9.098;2023-02-16T06:45:45;47.75;;;30.48;;
21107;SDS011;10712;52.944;9.098;2023-02-16T06:48:12;50.58;;;32.05;;
21107;SDS011;10712;52.944;9.098;2023-02-16T06:50:38;55.05;;;34.45;;
21107;SDS011;10712;52.944;9.098;2023-02-16T06:53:04;57.83;;;33.03;;
21107;SDS011;10712;52.944;9.098;2023-02-16T06:55:30;55.35;;;33.78;;
21107;SDS011;10712;52.944;9.098;2023-02-16T06:58:01;48.40;;;33.25;;
21107;SDS011;10712;52.944;9.098;2023-02-16T07:00:28;49.97;;;33.08;;
21107;SDS011;10712;52.944;9.098;2023-02-16T07:02:54;48.45;;;29.73;;
21107;SDS011;10712;52.944;9.098;2023-02-16T07:05:20;57.95;;;33.97;;
21107;SDS011;10712;52.944;9.098;2023-02-16T07:07:46;47.13;;;31.48;;
21107;SDS011;10712;52.944;9.098;2023-02-16T07:10:12;52.45;;;33.72;;
21107;SDS011;10712;52.944;9.098;2023-02-16T07:12:38;50.55;;;33.28;;
21107;SDS011;10712;52.944;9.098;2023-02-16T07:15:05;55.78;;;33.58;;
21107;SDS011;10712;52.944;9.098;2023-02-16T07:17:31;48.08;;;32.42;;
21107;SDS011;10712;52.944;9.098;2023-02-16T07:19:57;54.65;;;32.42;;
21107;SDS011;10712;52.944;9.098;2023-02-16T07:22:23;53.55;;;33.58;;
21107;SDS011;10712;52.944;9.098;2023-02-16T07:24:50;47.08;;;31.27;;
21107;SDS011;10712;52.944;9.098;2023-02-16T07:27:16;49.33;;;32.72;;
21107;SDS011;10712;52.944;9.098;2023-02-16T07:29:41;52.33;;;34.03;;
21107;SDS011;10712;52.944;9.098;2023-02-16T07:32:08;59.90;;;35.53;;
21107;SDS011;10712;52.944;9.098;2023-02-16T07:34:34;53.10;;;34.45;;
21107;SDS011;10712;52.944;9.098;2023-02-16T07:37:00;49.30;;;34.55;;
21107;SDS011;10712;52.944;9.098;2023-02-16T07:39:25;54.08;;;34.83;;
21107;SDS011;10712;52.944;9.098;2023-02-16T07:41:53;54.40;;;35.00;;
21107;SDS011;10712;52.944;9.098;2023-02-16T07:44:19;53.95;;;35.72;;
21107;SDS011;10712;52.944;9.098;2023-02-16T07:46:44;51.55;;;34.40;;
21107;SDS011;10712;52.944;9.098;2023-02-16T07:49:10;51.08;;;32.70;;
21107;SDS011;10712;52.944;9.098;2023-02-16T07:51:36;50.25;;;33.47;;
21107;SDS011;10712;52.944;9.098;2023-02-16T07:54:02;49.90;;;32.55;;
21107;SDS011;10712;52.944;9.098;2023-02-16T07:56:29;51.35;;;34.60;;
21107;SDS011;10712;52.944;9.098;2023-02-16T07:58:57;47.85;;;33.17;;
21107;SDS011;10712;52.944;9.098;2023-02-16T08:01:24;51.03;;;33.15;;
21107;SDS011;10712;52.944;9.098;2023-02-16T08:03:51;54.83;;;34.63;;
21107;SDS011;10712;52.944;9.098;2023-02-16T08:06:17;46.85;;;32.20;;
21107;SDS011;10712;52.944;9.098;2023-02-16T08:08:44;51.67;;;32.65;;
21107;SDS011;10712;52.944;9.098;2023-02-16T08:11:15;50.83;;;33.42;;
21107;SDS011;10712;52.944;9.098;2023-02-16T08:13:49;55.75;;;35.17;;
21107;SDS011;10712;52.944;9.098;2023-02-16T08:16:25;52.15;;;34.42;;
21107;SDS011;10712;52.944;9.098;2023-02-16T08:18:55;57.00;;;33.40;;
21107;SDS011;10712;52.944;9.098;2023-02-16T08:21:25;49.67;;;33.92;;
21107;SDS011;10712;52.944;9.098;2023-02-16T08:24:03;55.58;;;34.42;;
21107;SDS011;10712;52.944;9.098;2023-02-16T08:26:33;55.95;;;35.08;;
21107;SDS011;10712;52.944;9.098;2023-02-16T08:29:03;56.40;;;33.60;;
21107;SDS011;10712;52.944;9.098;2023-02-16T08:31:32;53.47;;;32.78;;
21107;SDS011;10712;52.944;9.098;2023-02-16T08:33:59;69.95;;;49.45;;
21107;SDS011;10712;52.944;9.098;2023-02-16T08:36:28;68.35;;;42.80;;
21107;SDS011;10712;52.944;9.098;2023-02-16T08:38:58;59.92;;;35.30;;
21107;SDS011;10712;52.944;9.098;2023-02-16T08:41:29;53.35;;;34.15;;
21107;SDS011;10712;52.944;9.098;2023-02-16T08:43:57;55.20;;;34.50;;
21107;SDS011;10712;52.944;9.098;2023-02-16T08:46:25;50.72;;;33.08;;
21107;SDS011;10712;52.944;9.098;2023-02-16T08:48:55;47.72;;;32.95;;
21107;SDS011;10712;52.944;9.098;2023-02-16T08:51:24;51.95;;;33.38;;
21107;SDS011;10712;52.944;9.098;2023-02-16T08:53:58;50.95;;;33.10;;
21107;SDS011;10712;52.944;9.098;2023-02-16T08:56:24;50.72;;;32.03;;
21107;SDS011;10712;52.944;9.098;2023-02-16T08:58:53;48.55;;;31.95;;
21107;SDS011;10712;52.944;9.098;2023-02-16T09:01:23;51.90;;;32.60;;
21107;SDS011;10712;52.944;9.098;2023-02-16T09:03:49;55.28;;;34.05;;
21107;SDS011;10712;52.944;9.098;2023-02-16T09:06:17;50.88;;;34.80;;
21107;SDS011;10712;52.944;9.098;2023-02-16T09:08:52;55.25;;;34.53;;
21107;SDS011;10712;52.944;9.098;2023-02-16T09:11:21;44.85;;;31.80;;
21107;SDS011;10712;52.944;9.098;2023-02-16T09:13:49;52.15;;;32.67;;
21107;SDS011;10712;52.944;9.098;2023-02-16T09:16:17;55.65;;;34.33;;
21107;SDS011;10712;52.944;9.098;2023-02-16T09:18:46;47.20;;;31.60;;
21107;SDS011;10712;52.944;9.098;2023-02-16T09:21:14;46.03;;;32.45;;
21107;SDS011;10712;52.944;9.098;2023-02-16T09:23:50;50.33;;;33.03;;
21107;SDS011;10712;52.944;9.098;2023-02-16T09:26:20;52.58;;;32.75;;
21107;SDS011;10712;52.944;9.098;2023-02-16T09:28:48;48.53;;;31.50;;
21107;SDS011;10712;52.944;9.098;2023-02-16T09:31:19;51.88;;;32.88;;
21107;SDS011;10712;52.944;9.098;2023-02-16T09:33:52;48.22;;;31.33;;
21107;SDS011;10712;52.944;9.098;2023-02-16T09:36:21;46.38;;;32.40;;
21107;SDS011;10712;52.944;9.098;2023-02-16T09:38:48;45.97;;;31.33;;
21107;SDS011;10712;52.944;9.098;2023-02-16T09:44:25;47.42;;;31.45;;
21107;SDS011;10712;52.944;9.098;2023-02-16T09:47:26;42.63;;;28.95;;
21107;SDS011;10712;52.944;9.098;2023-02-16T09:49:58;45.85;;;31.05;;
21107;SDS011;10712;52.944;9.098;2023-02-16T09:52:37;51.17;;;31.63;;
21107;SDS011;10712;52.944;9.098;2023-02-16T09:55:12;43.28;;;31.00;;
21107;SDS011;10712;52.944;9.098;2023-02-16T10:05:46;50.60;;;30.23;;
21107;SDS011;10712;52.944;9.098;2023-02-16T10:11:21;47.03;;;31.80;;
21107;SDS011;10712;52.944;9.098;2023-02-16T10:19:41;54.80;;;34.13;;
21107;SDS011;10712;52.944;9.098;2023-02-16T10:22:19;55.45;;;34.70;;
21107;SDS011;10712;52.944;9.098;2023-02-16T10:25:09;49.97;;;32.95;;
21107;SDS011;10712;52.944;9.098;2023-02-16T10:27:53;75.53;;;47.38;;
21107;SDS011;10712;52.944;9.098;2023-02-16T10:30:35;53.45;;;37.28;;
21107;SDS011;10712;52.944;9.098;2023-02-16T10:33:06;56.80;;;36.22;;
21107;SDS011;10712;52.944;9.098;2023-02-16T10:35:44;52.05;;;34.13;;
21107;SDS011;10712;52.944;9.098;2023-02-16T10:38:42;58.95;;;34.20;;
21107;SDS011;10712;52.944;9.098;2023-02-16T10:44:10;51.92;;;33.95;;
21107;SDS011;10712;52.944;9.098;2023-02-16T10:46:45;50.20;;;33.42;;
21107;SDS011;10712;52.944;9.098;2023-02-16T10:49:21;49.22;;;32.20;;
21107;SDS011;10712;52.944;9.098;2023-02-16T10:51:50;52.90;;;34.10;;
21107;SDS011;10712;52.944;9.098;2023-02-16T10:54:27;48.92;;;33.10;;
21107;SDS011;10712;52.944;9.098;2023-02-16T10:57:07;45.85;;;31.08;;
21107;SDS011;10712;52.944;9.098;2023-02-16T10:59:50;49.78;;;32.90;;
21107;SDS011;10712;52.944;9.098;2023-02-16T11:02:27;48.65;;;32.35;;
21107;SDS011;10712;52.944;9.098;2023-02-16T11:08:01;48.35;;;31.15;;
21107;SDS011;10712;52.944;9.098;2023-02-16T11:10:35;45.42;;;31.30;;
21107;SDS011;10712;52.944;9.098;2023-02-16T11:13:06;58.33;;;34.47;;
21107;SDS011;10712;52.944;9.098;2023-02-16T11:15:49;56.03;;;35.72;;
21107;SDS011;10712;52.944;9.098;2023-02-16T11:18:41;43.95;;;31.02;;
21107;SDS011;10712;52.944;9.098;2023-02-16T11:21:11;44.30;;;30.92;;
21107;SDS011;10712;52.944;9.098;2023-02-16T11:23:38;53.10;;;33.53;;
21107;SDS011;10712;52.944;9.098;2023-02-16T11:28:44;55.65;;;37.53;;
21107;SDS011;10712;52.944;9.098;2023-02-16T11:31:20;48.50;;;33.33;;
21107;SDS011;10712;52.944;9.098;2023-02-16T11:33:54;56.63;;;35.95;;
21107;SDS011;10712;52.944;9.098;2023-02-16T11:36:43;49.58;;;32.90;;
21107;SDS011;10712;52.944;9.098;2023-02-16T11:41:52;49.15;;;34.63;;
21107;SDS011;10712;52.944;9.098;2023-02-16T11:44:32;52.45;;;34.40;;
21107;SDS011;10712;52.944;9.098;2023-02-16T11:47:24;53.53;;;33.60;;
21107;SDS011;10712;52.944;9.098;2023-02-16T11:52:51;48.63;;;32.97;;
21107;SDS011;10712;52.944;9.098;2023-02-16T11:55:30;51.65;;;34.97;;
21107;SDS011;10712;52.944;9.098;2023-02-16T12:03:53;58.43;;;33.83;;
21107;SDS011;10712;52.944;9.098;2023-02-16T12:15:52;56.90;;;34.57;;
21107;SDS011;10712;52.944;9.098;2023-02-16T12:21:49;51.92;;;33.67;;
21107;SDS011;10712;52.944;9.098;2023-02-16T12:27:00;49.35;;;33.42;;
21107;SDS011;10712;52.944;9.098;2023-02-16T12:35:21;44.80;;;30.58;;
21107;SDS011;10712;52.944;9.098;2023-02-16T12:38:32;43.38;;;32.65;;
21107;SDS011;10712;52.944;9.098;2023-02-16T12:44:31;50.70;;;33.10;;
21107;SDS011;10712;52.944;9.098;2023-02-16T12:47:08;47.88;;;31.73;;
21107;SDS011;10712;52.944;9.098;2023-02-16T13:00:45;52.13;;;33.08;;
21107;SDS011;10712;52.944;9.098;2023-02-16T13:03:39;50.45;;;33.40;;
21107;SDS011;10712;52.944;9.098;2023-02-16T13:14:30;47.97;;;32.95;;
21107;SDS011;10712;52.944;9.098;2023-02-16T13:17:03;48.13;;;32.25;;
21107;SDS011;10712;52.944;9.098;2023-02-16T13:19:45;48.00;;;32.35;;
21107;SDS011;10712;52.944;9.098;2023-02-16T13:31:13;44.63;;;32.03;;
21107;SDS011;10712;52.944;9.098;2023-02-16T13:36:32;48.33;;;35.25;;
21107;SDS011;10712;52.944;9.098;2023-02-16T13:45:12;48.25;;;33.35;;
21107;SDS011;10712;52.944;9.098;2023-02-16T13:47:45;45.22;;;32.47;;
21107;SDS011;10712;52.944;9.098;2023-02-16T13:50:30;49.92;;;34.20;;
21107;SDS011;10712;52.944;9.098;2023-02-16T13:53:08;52.55;;;35.53;;
21107;SDS011;10712;52.944;9.098;2023-02-16T13:55:42;51.35;;;34.10;;
21107;SDS011;10712;52.944;9.098;2023-02-16T14:05:46;50.13;;;32.47;;
21107;SDS011;10712;52.944;9.098;2023-02-16T14:08:22;45.75;;;31.15;;
21107;SDS011;10712;52.944;9.098;2023-02-16T14:15:57;50.45;;;34.83;;
21107;SDS011;10712;52.944;9.098;2023-02-16T14:18:43;51.83;;;32.58;;
21107;SDS011;10712;52.944;9.098;2023-02-16T14:21:42;50.92;;;34.30;;
21107;SDS011;10712;52.944;9.098;2023-02-16T14:24:12;51.50;;;33.50;;
21107;SDS011;10712;52.944;9.098;2023-02-16T14:26:49;48.20;;;33.33;;
21107;SDS011;10712;52.944;9.098;2023-02-16T14:29:36;50.58;;;32.75;;
21107;SDS011;10712;52.944;9.098;2023-02-16T14:32:21;53.15;;;34.10;;
21107;SDS011;10712;52.944;9.098;2023-02-16T14:34:57;44.33;;;31.13;;
21107;SDS011;10712;52.944;9.098;2023-02-16T14:37:54;51.85;;;33.80;;
21107;SDS011;10712;52.944;9.098;2023-02-16T15:00:23;53.35;;;33.83;;
21107;SDS011;10712;52.944;9.098;2023-02-16T15:03:15;50.50;;;35.05;;
21107;SDS011;10712;52.944;9.098;2023-02-16T15:06:05;52.50;;;37.03;;
21107;SDS011;10712;52.944;9.098;2023-02-16T15:08:42;44.45;;;33.75;;
21107;SDS011;10712;52.944;9.098;2023-02-16T15:16:11;62.50;;;37.42;;
21107;SDS011;10712;52.944;9.098;2023-02-16T15:18:44;59.63;;;36.60;;
21107;SDS011;10712;52.944;9.098;2023-02-16T15:21:15;53.40;;;34.85;;
21107;SDS011;10712;52.944;9.098;2023-02-16T15:23:52;59.67;;;35.65;;
21107;SDS011;10712;52.944;9.098;2023-02-16T15:26:25;60.88;;;37.75;;
21107;SDS011;10712;52.944;9.098;2023-02-16T15:28:58;61.17;;;39.63;;
21107;SDS011;10712;52.944;9.098;2023-02-16T15:31:42;57.40;;;36.22;;
21107;SDS011;10712;52.944;9.098;2023-02-16T15:34:12;64.03;;;37.95;;
21107;SDS011;10712;52.944;9.098;2023-02-16T15:36:52;63.28;;;39.22;;
21107;SDS011;10712;52.944;9.098;2023-02-16T15:41:49;61.65;;;37.38;;
21107;SDS011;10712;52.944;9.098;2023-02-16T15:44:27;59.60;;;37.95;;
21107;SDS011;10712;52.944;9.098;2023-02-16T15:47:09;69.60;;;39.42;;
21107;SDS011;10712;52.944;9.098;2023-02-16T15:49:40;71.45;;;41.15;;
21107;SDS011;10712;52.944;9.098;2023-02-16T15:52:11;67.25;;;41.80;;
21107;SDS011;10712;52.944;9.098;2023-02-16T15:54:59;61.50;;;40.50;;
21107;SDS011;10712;52.944;9.098;2023-02-16T15:57:29;57.92;;;39.53;;
21107;SDS011;10712;52.944;9.098;2023-02-16T16:00:22;62.17;;;39.45;;
21107;SDS011;10712;52.944;9.098;2023-02-16T16:02:53;66.97;;;42.03;;
21107;SDS011;10712;52.944;9.098;2023-02-16T16:05:26;58.78;;;37.25;;
21107;SDS011;10712;52.944;9.098;2023-02-16T16:07:57;59.92;;;39.22;;
21107;SDS011;10712;52.944;9.098;2023-02-16T16:10:27;50.63;;;34.20;;
21107;SDS011;10712;52.944;9.098;2023-02-16T16:13:01;55.90;;;35.95;;
21107;SDS011;10712;52.944;9.098;2023-02-16T16:15:43;63.28;;;37.88;;
21107;SDS011;10712;52.944;9.098;2023-02-16T16:23:54;54.15;;;33.80;;
21107;SDS011;10712;52.944;9.098;2023-02-16T16:26:27;52.40;;;33.63;;
21107;SDS011;10712;52.944;9.098;2023-02-16T16:28:57;54.03;;;37.55;;
21107;SDS011;10712;52.944;9.098;2023-02-16T16:33:56;51.90;;;34.65;;
21107;SDS011;10712;52.944;9.098;2023-02-16T16:36:28;54.13;;;33.88;;
21107;SDS011;10712;52.944;9.098;2023-02-16T16:44:37;49.05;;;32.80;;
21107;SDS011;10712;52.944;9.098;2023-02-16T16:47:13;48.30;;;33.15;;
21107;SDS011;10712;52.944;9.098;2023-02-16T16:50:02;52.00;;;34.65;;
21107;SDS011;10712;52.944;9.098;2023-02-16T16:52:51;50.97;;;35.85;;
21107;SDS011;10712;52.944;9.098;2023-02-16T16:57:43;56.55;;;38.78;;
21107;SDS011;10712;52.944;9.098;2023-02-16T17:00:18;58.30;;;37.08;;
21107;SDS011;10712;52.944;9.098;2023-02-16T17:02:46;48.50;;;33.83;;
21107;SDS011;10712;52.944;9.098;2023-02-16T17:05:12;58.00;;;38.38;;
21107;SDS011;10712;52.944;9.098;2023-02-16T17:07:37;57.30;;;38.92;;
21107;SDS011;10712;52.944;9.098;2023-02-16T17:10:03;55.13;;;37.97;;
21107;SDS011;10712;52.944;9.098;2023-02-16T17:12:30;62.00;;;39.73;;
21107;SDS011;10712;52.944;9.098;2023-02-16T17:14:56;69.15;;;44.60;;
21107;SDS011;10712;52.944;9.098;2023-02-16T17:17:22;65.50;;;42.58;;
21107;SDS011;10712;52.944;9.098;2023-02-16T17:19:48;51.30;;;37.47;;
21107;SDS011;10712;52.944;9.098;2023-02-16T17:22:14;62.42;;;41.83;;
21107;SDS011;10712;52.944;9.098;2023-02-16T17:24:43;60.53;;;41.10;;
21107;SDS011;10712;52.944;9.098;2023-02-16T17:27:10;55.67;;;38.50;;
21107;SDS011;10712;52.944;9.098;2023-02-16T17:29:36;58.63;;;38.85;;
21107;SDS011;10712;52.944;9.098;2023-02-16T17:32:03;54.83;;;37.78;;
21107;SDS011;10712;52.944;9.098;2023-02-16T17:34:29;55.92;;;37.03;;
21107;SDS011;10712;52.944;9.098;2023-02-16T17:36:56;54.28;;;37.03;;
21107;SDS011;10712;52.944;9.098;2023-02-16T17:39:26;56.70;;;39.53;;
21107;SDS011;10712;52.944;9.098;2023-02-16T17:41:53;62.15;;;41.08;;
21107;SDS011;10712;52.944;9.098;2023-02-16T17:44:19;53.33;;;39.05;;
21107;SDS011;10712;52.944;9.098;2023-02-16T17:46:45;61.15;;;40.95;;
21107;SDS011;10712;52.944;9.098;2023-02-16T17:49:11;56.33;;;37.00;;
21107;SDS011;10712;52.944;9.098;2023-02-16T17:51:38;54.45;;;38.08;;
21107;SDS011;10712;52.944;9.098;2023-02-16T17:54:04;57.30;;;38.17;;
21107;SDS011;10712;52.944;9.098;2023-02-16T17:56:34;54.97;;;38.10;;